Time;durP1;ratioP1;P1;durP2;ratioP2;P2;SDS_P1;SDS_P2;PMS_P1;PMS_P2;Temp;Humidity;BMP_temperature;BMP_pressure;BME280_temperature;BME280_humidity;BME280_pressure;Samples;Min_cycle;Max_cycle;Signal;HPM_P1;HPM_P2
2022/01/09 00:02:12;;;;;;;0.40;0.32;;;;;;;5.00;100.00;98491.63;4998859;28;20053;-73
2022/01/09 00:04:38;;;;;;;0.20;0.20;;;;;;;5.06;100.00;98496.25;4979259;28;20049;-74
2022/01/09 00:07:05;;;;;;;0.40;0.30;;;;;;;5.11;100.00;98490.63;4998187;28;20116;-74
2022/01/09 00:09:41;;;;;;;0.60;0.40;;;;;;;5.11;100.00;98486.25;4997888;28;20034;-75
2022/01/09 00:12:08;;;;;;;0.47;0.38;;;;;;;5.18;100.00;98492.53;4999552;28;20120;-73
2022/01/09 00:14:35;;;;;;;1.95;0.65;;;;;;;5.22;100.00;98487.88;5002050;28;20045;-74
2022/01/09 00:17:04;;;;;;;0.57;0.40;;;;;;;5.20;100.00;98485.41;4996966;28;20044;-73
2022/01/09 00:19:31;;;;;;;0.60;0.35;;;;;;;5.29;99.64;98479.34;4998265;28;20074;-74
2022/01/09 00:21:57;;;;;;;0.30;0.20;;;;;;;5.26;100.00;98474.41;4997482;28;20046;-74
2022/01/09 00:24:24;;;;;;;0.20;0.20;;;;;;;5.26;99.96;98484.00;4999506;28;20051;-74
2022/01/09 00:26:50;;;;;;;0.30;0.22;;;;;;;5.24;100.00;98485.94;4998453;28;20046;-73
2022/01/09 00:29:20;;;;;;;0.52;0.30;;;;;;;5.20;100.00;98485.41;4983008;28;20951;-72
2022/01/09 00:31:46;;;;;;;0.30;0.28;;;;;;;5.21;99.99;98487.03;4985000;28;20053;-74
2022/01/09 00:34:14;;;;;;;0.52;0.30;;;;;;;5.29;100.00;98494.13;4998058;28;20060;-73
2022/01/09 00:36:41;;;;;;;0.40;0.32;;;;;;;5.27;100.00;98496.88;4986400;28;20424;-74
2022/01/09 00:39:08;;;;;;;0.47;0.40;;;;;;;5.29;100.00;98500.19;4996479;28;20087;-73
2022/01/09 00:41:34;;;;;;;0.73;0.38;;;;;;;5.30;100.00;98495.78;5002275;28;20057;-73
2022/01/09 00:44:02;;;;;;;1.35;0.70;;;;;;;5.29;100.00;98500.19;4997902;28;20168;-74
2022/01/09 00:46:28;;;;;;;0.50;0.30;;;;;;;5.29;100.00;98507.97;5000930;28;20044;-74
2022/01/09 00:48:58;;;;;;;1.02;0.50;;;;;;;5.32;100.00;98510.28;4981223;28;21006;-73
2022/01/09 00:51:26;;;;;;;0.98;0.38;;;;;;;5.32;100.00;98499.88;4984299;28;20048;-74
2022/01/09 00:53:55;;;;;;;1.65;0.68;;;;;;;5.44;100.00;98523.94;5007744;28;20054;-74
2022/01/09 00:56:22;;;;;;;0.70;0.43;;;;;;;5.38;100.00;98521.91;5005906;28;20131;-73
2022/01/09 00:58:49;;;;;;;0.65;0.40;;;;;;;5.38;100.00;98533.13;5004851;28;20048;-73
2022/01/09 01:01:15;;;;;;;0.73;0.52;;;;;;;5.34;100.00;98529.19;5001019;28;20140;-73
2022/01/09 01:03:45;;;;;;;0.77;0.30;;;;;;;5.36;100.00;98535.09;5004691;28;20046;-73
2022/01/09 01:06:13;;;;;;;0.73;0.50;;;;;;;5.39;100.00;98529.56;5001197;28;20077;-74
2022/01/09 01:08:41;;;;;;;0.28;0.20;;;;;;;5.49;100.00;98559.00;4993459;28;20289;-73
2022/01/09 01:14:05;;;;;;;0.52;0.43;;;;;;;5.52;100.00;98563.94;5121131;27;20362;-73
2022/01/09 01:16:33;;;;;;;0.80;0.50;;;;;;;5.60;100.00;98567.44;5103273;27;20111;-74
2022/01/09 01:19:02;;;;;;;0.57;0.50;;;;;;;5.69;100.00;98586.63;5107535;27;20489;-73
2022/01/09 01:21:29;;;;;;;1.38;0.98;;;;;;;5.71;100.00;98595.09;5102346;27;20054;-72
2022/01/09 01:23:56;;;;;;;0.90;0.68;;;;;;;5.74;100.00;98595.66;5104126;27;20047;-73
2022/01/09 01:26:22;;;;;;;0.82;0.65;;;;;;;5.72;100.00;98608.00;5107628;27;20050;-73
2022/01/09 01:28:49;;;;;;;1.52;1.10;;;;;;;5.76;100.00;98606.75;5087184;27;20043;-73
2022/01/09 01:31:17;;;;;;;2.17;0.82;;;;;;;5.71;99.82;98621.97;5104100;27;20051;-73
2022/01/09 01:33:44;;;;;;;0.90;0.70;;;;;;;5.74;99.81;98637.34;5104186;27;20050;-73
2022/01/09 01:36:10;;;;;;;0.63;0.50;;;;;;;5.73;97.17;98640.06;5101084;27;20054;-73
2022/01/09 01:38:37;;;;;;;1.63;0.68;;;;;;;5.75;96.06;98658.97;5103977;27;20043;-72
2022/01/09 01:41:04;;;;;;;2.28;1.10;;;;;;;5.69;96.59;98675.19;5105087;27;20040;-73
2022/01/09 01:46:08;;;;;;;1.58;0.88;;;;;;;5.53;96.58;98685.38;5041924;28;20641;-72
2022/01/09 01:48:35;;;;;;;0.38;0.30;;;;;;;5.47;96.16;98692.91;5038824;28;20049;-73
2022/01/09 01:51:01;;;;;;;3.13;0.68;;;;;;;5.41;97.03;98704.69;5046637;28;20567;-73
2022/01/09 01:53:29;;;;;;;1.90;0.75;;;;;;;5.41;97.57;98706.47;5041998;28;20041;-72
2022/01/09 01:55:57;;;;;;;3.00;0.68;;;;;;;5.41;96.84;98727.31;5039246;28;20055;-74
2022/01/09 01:58:26;;;;;;;4.95;1.45;;;;;;;5.40;97.57;98731.69;5042064;28;20044;-73
2022/01/09 02:00:53;;;;;;;8.88;0.93;;;;;;;5.40;97.17;98736.88;5051575;28;20045;-74
2022/01/09 02:03:21;;;;;;;1.73;1.15;;;;;;;5.42;96.97;98728.97;5052969;28;20033;-73
2022/01/09 02:05:48;;;;;;;5.93;1.27;;;;;;;5.48;95.96;98755.25;5059659;28;20040;-73
2022/01/09 02:08:15;;;;;;;2.40;0.65;;;;;;;5.46;96.46;98756.34;5056871;28;20135;-73
2022/01/09 02:10:44;;;;;;;9.40;1.73;;;;;;;5.43;96.45;98777.44;5033293;28;20041;-73
2022/01/09 02:13:11;;;;;;;18.25;1.85;;;;;;;5.51;96.21;98775.81;5032199;28;20091;-73
2022/01/09 02:15:42;;;;;;;0.93;0.68;;;;;;;5.43;96.95;98783.47;5031914;28;20088;-74
2022/01/09 02:18:12;;;;;;;2.97;0.90;;;;;;;5.46;96.65;98787.59;5034691;28;20124;-74
2022/01/09 02:20:40;;;;;;;1.73;0.77;;;;;;;5.45;97.02;98789.38;5031446;28;20040;-75
2022/01/09 02:23:08;;;;;;;4.38;1.30;;;;;;;5.49;96.22;98798.56;5030947;28;20040;-74
2022/01/09 02:25:35;;;;;;;22.83;1.77;;;;;;;5.56;96.04;98799.66;5030576;28;20045;-74
2022/01/09 02:28:01;;;;;;;12.52;1.95;;;;;;;5.63;95.62;98809.38;5039178;28;20138;-72
2022/01/09 02:30:32;;;;;;;0.50;0.40;;;;;;;5.59;96.87;98821.03;5040639;28;20119;-73
2022/01/09 02:32:59;;;;;;;1.58;0.95;;;;;;;5.64;97.29;98808.44;5041145;28;20139;-73
2022/01/09 02:35:26;;;;;;;3.95;1.20;;;;;;;5.73;96.86;98827.59;5038954;28;20143;-73
2022/01/09 02:37:54;;;;;;;16.58;2.05;;;;;;;5.77;96.68;98831.63;5035166;28;20045;-74
2022/01/09 02:40:22;;;;;;;4.78;1.63;;;;;;;5.77;97.16;98853.28;5050284;28;20049;-73
2022/01/09 02:42:49;;;;;;;4.10;2.40;;;;;;;5.78;97.18;98861.94;5031872;28;20059;-73
2022/01/09 02:45:19;;;;;;;7.38;2.17;;;;;;;5.81;97.15;98859.88;5030562;28;20049;-72
2022/01/09 02:47:46;;;;;;;8.93;1.88;;;;;;;5.79;97.10;98863.56;5030835;28;20136;-75
2022/01/09 02:50:29;;;;;;;4.72;1.10;;;;;;;5.80;96.82;98870.41;5035014;28;20045;-74
2022/01/09 02:53:00;;;;;;;4.00;1.75;;;;;;;5.84;96.42;98877.00;5031183;28;20041;-73
2022/01/09 02:55:28;;;;;;;2.95;0.70;;;;;;;5.89;95.18;98882.63;5029542;28;20069;-74
2022/01/09 02:57:57;;;;;;;9.75;2.33;;;;;;;5.88;95.26;98883.59;5020654;28;20049;-73
2022/01/09 03:00:25;;;;;;;1.63;1.00;;;;;;;5.81;96.23;98890.31;5023258;28;20511;-74
2022/01/09 03:02:52;;;;;;;8.27;2.47;;;;;;;5.88;96.33;98907.03;5024398;28;20594;-72
2022/01/09 03:05:19;;;;;;;23.13;3.45;;;;;;;5.82;97.51;98902.38;5021888;28;20057;-72
2022/01/09 03:07:46;;;;;;;7.40;2.17;;;;;;;5.84;97.93;98916.09;5019039;28;20114;-72
2022/01/09 03:10:16;;;;;;;5.22;2.35;;;;;;;5.85;98.10;98921.16;5015708;28;20053;-72
2022/01/09 03:12:43;;;;;;;23.48;2.15;;;;;;;5.86;98.23;98924.59;5021387;28;20573;-73
2022/01/09 03:15:10;;;;;;;0.77;0.65;;;;;;;5.88;98.28;98930.47;5015572;28;20045;-73
2022/01/09 03:17:38;;;;;;;22.30;3.20;;;;;;;5.81;98.51;98927.63;5018276;28;20041;-73
2022/01/09 03:20:10;;;;;;;10.82;1.95;;;;;;;5.86;98.03;98937.63;5018771;28;20132;-72
2022/01/09 03:22:37;;;;;;;9.57;3.10;;;;;;;5.87;98.28;98944.47;5026263;28;20747;-73
2022/01/09 03:25:05;;;;;;;9.45;1.05;;;;;;;5.94;97.91;98946.41;5018051;28;20467;-72
2022/01/09 03:27:33;;;;;;;5.03;2.10;;;;;;;6.00;97.09;98960.69;5017564;28;20045;-72
2022/01/09 03:30:01;;;;;;;11.52;1.45;;;;;;;5.98;96.85;98962.59;5018801;28;20052;-73
2022/01/09 03:32:27;;;;;;;18.05;3.10;;;;;;;5.95;97.20;98971.50;5023151;28;20148;-72
2022/01/09 03:34:54;;;;;;;6.55;1.55;;;;;;;5.97;97.00;98982.63;5019822;28;20838;-73
2022/01/09 03:37:21;;;;;;;3.65;1.65;;;;;;;6.00;96.74;98982.34;5021575;28;20072;-72
2022/01/09 03:39:47;;;;;;;10.52;1.42;;;;;;;5.98;97.17;98994.72;5017021;28;20037;-73
2022/01/09 03:42:14;;;;;;;12.57;2.45;;;;;;;5.95;97.14;98999.38;5021337;28;20045;-72
2022/01/09 03:44:42;;;;;;;0.70;0.52;;;;;;;6.03;96.61;99002.13;5020210;28;20053;-73
2022/01/09 03:47:08;;;;;;;24.75;2.75;;;;;;;6.06;95.80;99007.03;5019322;28;20868;-72
2022/01/09 03:49:35;;;;;;;1.73;0.73;;;;;;;6.06;95.70;99005.28;5019811;28;20041;-73
2022/01/09 03:52:02;;;;;;;11.70;2.03;;;;;;;6.12;94.83;99022.13;5017486;28;20113;-73
2022/01/09 03:54:28;;;;;;;5.75;1.70;;;;;;;6.10;95.22;99014.47;5021135;28;20088;-73
2022/01/09 03:56:55;;;;;;;8.60;1.92;;;;;;;6.08;95.46;99041.63;5020059;28;20046;-73
2022/01/09 03:59:23;;;;;;;9.25;2.05;;;;;;;6.08;95.52;99033.81;5017170;28;20049;-72
2022/01/09 04:01:51;;;;;;;10.07;3.35;;;;;;;6.10;95.76;99050.94;5017780;28;20175;-72
2022/01/09 04:04:18;;;;;;;27.13;3.78;;;;;;;6.10;95.08;99060.56;5019410;28;20049;-71
2022/01/09 04:06:50;;;;;;;8.93;2.10;;;;;;;6.09;95.40;99058.91;5019929;28;20197;-72
2022/01/09 04:09:27;;;;;;;8.10;1.48;;;;;;;6.09;94.93;99064.13;5017066;28;20103;-73
2022/01/09 04:12:01;;;;;;;12.63;2.80;;;;;;;6.08;95.11;99072.91;5017728;28;20049;-73
2022/01/09 04:14:28;;;;;;;16.55;3.90;;;;;;;6.05;95.24;99075.75;5016819;28;20040;-74
2022/01/09 04:16:56;;;;;;;5.78;3.25;;;;;;;6.04;94.84;99077.56;5019757;28;20045;-73
2022/01/09 04:19:23;;;;;;;17.33;2.35;;;;;;;6.03;94.20;99093.34;5019461;28;20037;-73
2022/01/09 04:21:49;;;;;;;2.17;1.33;;;;;;;6.04;94.38;99105.38;5020739;28;20045;-73
2022/01/09 04:24:16;;;;;;;2.03;0.65;;;;;;;6.01;93.71;99111.69;5021435;28;20600;-73
2022/01/09 04:26:43;;;;;;;10.85;2.00;;;;;;;5.99;94.01;99125.81;5019407;28;20045;-72
2022/01/09 04:29:09;;;;;;;6.85;1.38;;;;;;;5.97;93.25;99125.97;5024912;28;20050;-73
2022/01/09 04:31:38;;;;;;;6.95;1.10;;;;;;;5.94;93.20;99122.81;5022077;28;20655;-73
2022/01/09 04:34:06;;;;;;;25.60;0.77;;;;;;;5.99;92.21;99142.28;5021814;28;20045;-74
2022/01/09 04:36:32;;;;;;;5.05;1.02;;;;;;;5.89;93.17;99151.00;5026495;28;20087;-72
2022/01/09 04:38:59;;;;;;;4.25;1.40;;;;;;;5.89;92.32;99158.81;5036915;28;20037;-72
2022/01/09 04:41:26;;;;;;;3.33;0.93;;;;;;;5.88;92.18;99165.00;5042177;28;20029;-73
2022/01/09 04:43:52;;;;;;;10.05;1.15;;;;;;;5.87;92.20;99171.16;5039415;28;20064;-72
2022/01/09 04:46:25;;;;;;;4.45;1.55;;;;;;;5.83;92.54;99175.81;5023594;28;20136;-72
2022/01/09 04:48:54;;;;;;;11.38;1.55;;;;;;;5.77;92.52;99188.53;5018808;28;20069;-71
2022/01/09 04:51:22;;;;;;;3.97;1.15;;;;;;;5.80;92.28;99185.66;5019920;28;20114;-72
2022/01/09 04:53:49;;;;;;;1.13;0.80;;;;;;;5.80;92.00;99198.69;5019502;28;20149;-72
2022/01/09 04:56:16;;;;;;;3.88;1.42;;;;;;;5.84;91.51;99194.88;5018387;28;20060;-73
2022/01/09 04:58:42;;;;;;;1.42;0.88;;;;;;;5.84;91.64;99205.31;5015801;28;20171;-73
2022/01/09 05:01:09;;;;;;;1.75;0.65;;;;;;;5.86;91.19;99213.84;5010238;28;20068;-72
2022/01/09 05:03:37;;;;;;;2.05;0.77;;;;;;;5.84;91.45;99231.38;5018489;28;20150;-73
2022/01/09 05:06:04;;;;;;;9.95;3.38;;;;;;;5.81;91.09;99236.81;5015800;28;20045;-72
2022/01/09 05:08:32;;;;;;;9.27;1.85;;;;;;;5.79;91.52;99238.72;5011960;28;20041;-74
2022/01/09 05:10:59;;;;;;;2.83;1.60;;;;;;;5.77;91.42;99241.47;5020346;28;20045;-72
2022/01/09 05:13:26;;;;;;;4.35;1.23;;;;;;;5.79;91.13;99251.75;5016899;28;20128;-73
2022/01/09 05:15:54;;;;;;;2.58;1.08;;;;;;;5.78;90.98;99257.94;5018025;28;20049;-72
2022/01/09 05:18:21;;;;;;;8.25;0.60;;;;;;;5.75;91.21;99258.97;5018187;28;20045;-72
2022/01/09 05:20:48;;;;;;;3.85;1.63;;;;;;;5.79;90.69;99275.19;5017169;28;20041;-74
2022/01/09 05:23:14;;;;;;;10.73;1.15;;;;;;;5.67;91.33;99263.16;5016855;28;20045;-73
2022/01/09 05:25:42;;;;;;;11.18;0.85;;;;;;;5.75;91.12;99279.00;5014233;28;20056;-73
2022/01/09 05:28:09;;;;;;;3.83;1.08;;;;;;;5.72;91.15;99284.44;5018579;28;20033;-73
2022/01/09 05:30:35;;;;;;;3.30;1.05;;;;;;;5.63;91.44;99285.19;5016300;28;20052;-71
2022/01/09 05:33:02;;;;;;;4.82;1.30;;;;;;;5.62;91.36;99294.00;5017504;28;20701;-71
2022/01/09 05:35:29;;;;;;;3.25;1.23;;;;;;;5.58;91.34;99305.59;5016938;28;20530;-74
2022/01/09 05:37:56;;;;;;;3.28;0.95;;;;;;;5.51;91.24;99304.44;5015892;28;20546;-72
2022/01/09 05:40:22;;;;;;;2.45;0.65;;;;;;;5.48;91.55;99304.69;5017918;28;20199;-71
2022/01/09 05:42:50;;;;;;;3.33;0.80;;;;;;;5.41;91.66;99315.75;5020191;28;20047;-71
2022/01/09 05:45:18;;;;;;;1.33;0.70;;;;;;;5.45;90.80;99317.97;5024212;28;20060;-72
2022/01/09 05:47:45;;;;;;;1.35;0.77;;;;;;;5.36;91.37;99329.13;5021053;28;20052;-74
2022/01/09 05:52:33;;;;;;;8.75;1.55;;;;;;;5.27;92.11;99339.41;5141656;27;20383;-74
2022/01/09 05:55:08;;;;;;;1.63;0.70;;;;;;;5.39;90.76;99334.06;5136869;27;20047;-73
2022/01/09 05:57:35;;;;;;;0.20;0.20;;;;;;;5.30;91.07;99334.81;5142109;27;20066;-73
2022/01/09 06:00:01;;;;;;;0.60;0.50;;;;;;;5.23;91.22;99338.84;5141926;27;20030;-73
2022/01/09 06:02:28;;;;;;;2.35;1.02;;;;;;;5.25;90.75;99344.75;5142527;27;20049;-73
2022/01/09 06:04:55;;;;;;;1.30;0.73;;;;;;;5.22;91.07;99352.00;5141371;27;20053;-73
2022/01/09 06:07:21;;;;;;;0.88;0.57;;;;;;;5.28;90.59;99354.09;5142076;27;20050;-73
2022/01/09 06:09:49;;;;;;;4.18;0.95;;;;;;;5.28;91.20;99361.91;5138784;27;20026;-74
2022/01/09 06:12:16;;;;;;;3.83;1.25;;;;;;;5.27;90.93;99371.50;5146602;27;20043;-75
2022/01/09 06:14:42;;;;;;;12.55;1.30;;;;;;;5.18;91.32;99372.22;5147175;27;20039;-74
2022/01/09 06:17:09;;;;;;;15.13;2.33;;;;;;;5.18;91.09;99372.22;5143116;27;20039;-73
2022/01/09 06:19:36;;;;;;;0.63;0.57;;;;;;;5.16;91.02;99379.31;5144625;27;20125;-74
2022/01/09 06:22:03;;;;;;;1.13;0.90;;;;;;;5.15;91.34;99395.06;5136364;27;20119;-74
2022/01/09 06:24:30;;;;;;;6.70;1.15;;;;;;;5.18;90.13;99387.00;5138428;27;20047;-73
2022/01/09 06:26:58;;;;;;;0.73;0.57;;;;;;;5.11;91.07;99404.06;5141233;27;20048;-74
2022/01/09 06:29:25;;;;;;;19.35;0.73;;;;;;;5.02;91.05;99405.63;5140529;27;20043;-75
2022/01/09 06:31:51;;;;;;;1.20;0.55;;;;;;;5.02;91.00;99408.22;5138239;27;20049;-73
2022/01/09 06:34:18;;;;;;;1.08;0.82;;;;;;;4.96;91.18;99413.06;5139216;27;20869;-75
2022/01/09 06:36:44;;;;;;;2.45;0.90;;;;;;;4.94;91.09;99415.78;5140341;27;20049;-75
2022/01/09 06:39:14;;;;;;;3.90;1.30;;;;;;;4.91;90.85;99426.41;5136452;27;20465;-75
2022/01/09 06:41:41;;;;;;;0.70;0.65;;;;;;;4.94;91.14;99436.59;5138372;27;20051;-75
2022/01/09 06:44:09;;;;;;;6.65;1.35;;;;;;;4.92;91.17;99432.47;5142415;27;20050;-74
2022/01/09 06:46:35;;;;;;;3.60;1.50;;;;;;;4.88;92.29;99441.44;5141233;27;20092;-75
2022/01/09 06:49:02;;;;;;;2.70;0.82;;;;;;;4.78;92.02;99436.13;5144969;27;20058;-74
2022/01/09 06:51:29;;;;;;;3.53;0.43;;;;;;;4.79;92.57;99436.94;5141437;27;20051;-74
2022/01/09 06:53:56;;;;;;;1.23;0.85;;;;;;;4.76;92.15;99438.00;5138189;27;20403;-71
2022/01/09 06:56:22;;;;;;;0.98;0.55;;;;;;;4.71;92.42;99451.47;5141996;27;21251;-74
2022/01/09 06:58:49;;;;;;;1.60;0.93;;;;;;;4.71;92.91;99459.28;5144645;27;22144;-73
2022/01/09 07:01:17;;;;;;;4.43;1.38;;;;;;;4.63;93.23;99457.25;5140785;27;20532;-73
2022/01/09 07:03:43;;;;;;;1.75;1.20;;;;;;;4.69;93.36;99476.78;5126114;27;20043;-73
2022/01/09 07:06:10;;;;;;;15.63;3.13;;;;;;;4.77;93.74;99476.09;5127026;27;20066;-74
2022/01/09 07:08:38;;;;;;;1.45;0.40;;;;;;;4.87;93.62;99481.41;5128715;27;20046;-73
2022/01/09 07:11:05;;;;;;;0.82;0.68;;;;;;;4.95;93.24;99479.06;5137768;27;20054;-75
2022/01/09 07:13:32;;;;;;;3.85;0.80;;;;;;;5.03;92.60;99482.75;5163167;27;20042;-72
2022/01/09 07:15:58;;;;;;;5.93;0.88;;;;;;;5.06;91.82;99492.91;5156389;27;20027;-73
2022/01/09 07:18:26;;;;;;;2.60;1.10;;;;;;;5.00;91.69;99498.56;5166058;27;20062;-71
2022/01/09 07:20:53;;;;;;;7.75;2.53;;;;;;;4.82;92.78;99497.34;5141037;27;20087;-73
2022/01/09 07:23:20;;;;;;;1.35;0.98;;;;;;;4.78;92.92;99503.75;5141698;27;20054;-73
2022/01/09 07:25:46;;;;;;;0.38;0.38;;;;;;;4.81;93.07;99508.72;5146254;27;20539;-73
2022/01/09 07:28:13;;;;;;;0.30;0.22;;;;;;;4.81;92.70;99508.72;5137521;27;20072;-74
2022/01/09 07:30:40;;;;;;;2.03;1.23;;;;;;;4.83;92.40;99516.41;5131412;27;20049;-73
2022/01/09 07:33:07;;;;;;;4.78;1.50;;;;;;;4.90;92.26;99528.84;5144589;27;20043;-72
2022/01/09 07:35:36;;;;;;;0.80;0.43;;;;;;;4.94;92.68;99529.44;5130014;27;20054;-74
2022/01/09 07:38:02;;;;;;;7.85;1.23;;;;;;;4.99;91.83;99535.94;5141420;27;20126;-72
2022/01/09 07:40:29;;;;;;;3.53;1.02;;;;;;;5.00;92.33;99544.59;5135846;27;20035;-73
2022/01/09 07:42:56;;;;;;;6.40;1.30;;;;;;;5.01;92.36;99543.63;5137354;27;20046;-72
2022/01/09 07:45:25;;;;;;;1.65;1.05;;;;;;;5.02;91.87;99548.75;5138998;27;20074;-74
2022/01/09 07:47:52;;;;;;;3.90;1.27;;;;;;;5.08;91.55;99561.28;5137706;27;20042;-73
2022/01/09 07:50:19;;;;;;;5.28;1.08;;;;;;;5.07;91.83;99554.41;5136975;27;20035;-74
2022/01/09 07:52:47;;;;;;;0.95;0.68;;;;;;;5.08;91.63;99553.47;5135936;27;20043;-73
2022/01/09 07:55:15;;;;;;;8.95;2.70;;;;;;;5.07;91.68;99559.63;5132635;27;20042;-73
2022/01/09 07:57:41;;;;;;;11.65;0.80;;;;;;;5.07;91.45;99567.44;5135970;27;20118;-73
2022/01/09 08:00:10;;;;;;;5.78;0.80;;;;;;;5.06;91.69;99570.16;5132792;27;20043;-74
2022/01/09 08:02:38;;;;;;;2.58;1.15;;;;;;;5.00;91.96;99566.22;5129903;27;20043;-74
2022/01/09 08:05:05;;;;;;;8.75;0.95;;;;;;;4.98;91.01;99573.31;5141285;27;20138;-73
2022/01/09 08:07:32;;;;;;;0.43;0.38;;;;;;;4.87;92.34;99581.13;5137566;27;20078;-72
2022/01/09 08:10:00;;;;;;;9.50;1.67;;;;;;;4.93;92.26;99578.06;5135498;27;20042;-73
2022/01/09 08:12:27;;;;;;;0.57;0.55;;;;;;;5.00;91.46;99592.25;5132638;27;20119;-72
2022/01/09 08:14:54;;;;;;;1.23;0.80;;;;;;;4.99;91.26;99595.81;5139568;27;20077;-72
2022/01/09 08:17:20;;;;;;;0.20;0.20;;;;;;;4.99;91.30;99588.00;5133449;27;20039;-73
2022/01/09 08:19:47;;;;;;;17.50;1.02;;;;;;;4.89;91.04;99594.81;5139291;27;20054;-73
2022/01/09 08:22:14;;;;;;;2.15;1.85;;;;;;;4.89;91.00;99594.81;5133895;27;20050;-72
2022/01/09 08:24:40;;;;;;;2.13;0.93;;;;;;;4.87;91.56;99596.72;5138905;27;20123;-73
2022/01/09 08:27:09;;;;;;;0.20;0.20;;;;;;;4.93;91.50;99606.66;5136820;27;20046;-73
2022/01/09 08:29:37;;;;;;;8.13;1.30;;;;;;;5.03;90.69;99606.81;5135561;27;20135;-73
2022/01/09 08:32:06;;;;;;;4.95;0.85;;;;;;;5.09;90.65;99607.19;5135531;27;20130;-73
2022/01/09 08:34:33;;;;;;;4.18;0.88;;;;;;;5.10;89.95;99614.06;5137420;27;20042;-73
2022/01/09 08:37:00;;;;;;;8.20;1.52;;;;;;;5.19;90.38;99613.38;5134357;27;20695;-73
2022/01/09 08:39:26;;;;;;;1.42;0.75;;;;;;;5.32;90.17;99608.88;5137033;27;20614;-73
2022/01/09 08:41:53;;;;;;;3.50;0.57;;;;;;;5.38;90.35;99626.63;5139690;27;20092;-73
2022/01/09 08:44:21;;;;;;;4.85;1.38;;;;;;;5.48;90.22;99629.41;5134932;27;20047;-72
2022/01/09 08:46:48;;;;;;;2.28;1.02;;;;;;;5.41;90.20;99631.63;5139666;27;20035;-73
2022/01/09 08:49:14;;;;;;;2.28;0.47;;;;;;;5.39;90.77;99632.69;5135608;27;20088;-75
2022/01/09 08:51:41;;;;;;;7.18;0.93;;;;;;;5.27;90.96;99631.84;5125807;27;20074;-73
2022/01/09 08:54:08;;;;;;;7.93;1.60;;;;;;;5.22;91.27;99636.56;5133403;27;20037;-73
2022/01/09 08:56:36;;;;;;;8.45;0.88;;;;;;;5.18;91.58;99636.91;5133305;27;20054;-71
2022/01/09 08:59:03;;;;;;;4.30;0.70;;;;;;;5.29;91.38;99640.38;5139547;27;20045;-72
2022/01/09 09:01:31;;;;;;;1.08;0.80;;;;;;;5.48;90.44;99639.81;5134326;27;20142;-73
2022/01/09 09:03:58;;;;;;;9.77;0.68;;;;;;;5.83;89.55;99651.84;5137689;27;20039;-73
2022/01/09 09:06:25;;;;;;;3.40;0.95;;;;;;;6.08;87.29;99647.19;5147353;27;20051;-72
2022/01/09 09:08:51;;;;;;;9.50;1.13;;;;;;;6.10;87.31;99667.97;5135247;27;20137;-73
2022/01/09 09:11:18;;;;;;;8.95;1.73;;;;;;;5.87;88.11;99661.91;5133527;27;20039;-73
2022/01/09 09:13:45;;;;;;;4.82;0.57;;;;;;;5.67;88.33;99666.97;5139715;27;20122;-73
2022/01/09 09:16:11;;;;;;;7.68;2.05;;;;;;;5.58;89.38;99673.66;5129838;27;20069;-72
2022/01/09 09:18:39;;;;;;;3.13;1.35;;;;;;;5.48;89.87;99677.09;5139453;27;20496;-72
2022/01/09 09:21:09;;;;;;;1.10;0.70;;;;;;;5.40;90.03;99676.03;5130793;27;20046;-73
2022/01/09 09:23:35;;;;;;;3.85;1.52;;;;;;;5.32;90.37;99683.56;5133207;27;20050;-73
2022/01/09 09:26:02;;;;;;;7.22;1.88;;;;;;;5.28;90.80;99682.13;5141009;27;20074;-72
2022/01/09 09:28:28;;;;;;;1.27;0.68;;;;;;;5.21;90.62;99689.56;5140015;27;20039;-72
2022/01/09 09:30:55;;;;;;;5.82;1.52;;;;;;;5.12;91.38;99694.63;5141522;27;20043;-71
2022/01/09 09:33:22;;;;;;;3.35;1.48;;;;;;;5.05;91.99;99699.44;5147589;27;20074;-74
2022/01/09 09:35:52;;;;;;;3.95;1.13;;;;;;;5.07;92.01;99704.56;5139468;27;20035;-73
2022/01/09 09:38:18;;;;;;;4.05;0.68;;;;;;;5.19;91.03;99716.66;5134355;27;20038;-72
2022/01/09 09:40:45;;;;;;;0.75;0.65;;;;;;;5.20;91.40;99718.31;5141660;27;20065;-72
2022/01/09 09:43:12;;;;;;;8.50;1.15;;;;;;;5.26;91.36;99723.06;5135956;27;20127;-72
2022/01/09 09:45:38;;;;;;;1.25;0.82;;;;;;;5.24;92.08;99725.78;5136645;27;20045;-71
2022/01/09 09:48:06;;;;;;;2.10;0.77;;;;;;;5.23;92.32;99724.13;5150277;27;20034;-72
2022/01/09 09:50:32;;;;;;;3.70;0.75;;;;;;;5.24;92.97;99733.59;5151476;27;20076;-73
2022/01/09 09:53:02;;;;;;;12.98;2.20;;;;;;;5.25;92.93;99737.88;5150932;27;20074;-71
2022/01/09 09:55:29;;;;;;;5.63;1.23;;;;;;;5.27;93.66;99730.78;5130469;27;20046;-72
2022/01/09 09:57:58;;;;;;;1.35;0.60;;;;;;;5.36;92.72;99748.34;5127655;27;20123;-69
2022/01/09 10:00:26;;;;;;;1.27;0.70;;;;;;;5.43;91.91;99736.53;5149210;27;20039;-70
2022/01/09 10:02:55;;;;;;;15.70;2.08;;;;;;;5.41;91.61;99746.22;5137255;27;20055;-71
2022/01/09 10:05:26;;;;;;;5.78;0.93;;;;;;;5.42;91.89;99737.47;5134275;27;20049;-70
2022/01/09 10:07:54;;;;;;;3.25;1.20;;;;;;;5.56;91.60;99747.69;5132732;27;20038;-69
2022/01/09 10:10:30;;;;;;;2.47;0.95;;;;;;;5.74;90.84;99751.53;5137438;27;20070;-70
2022/01/09 10:13:06;;;;;;;6.53;1.70;;;;;;;5.92;89.61;99756.19;5132304;27;20116;-71
2022/01/09 10:15:44;;;;;;;0.57;0.40;;;;;;;5.77;89.29;99757.34;5141189;27;20103;-68
2022/01/09 10:18:10;;;;;;;2.88;0.90;;;;;;;5.62;90.26;99758.47;5126926;27;20051;-69
2022/01/09 10:20:38;;;;;;;1.50;1.15;;;;;;;5.58;91.01;99754.44;5134234;27;20118;-70
2022/01/09 10:23:05;;;;;;;5.25;1.10;;;;;;;5.57;91.33;99765.81;5134677;27;20116;-69
2022/01/09 10:25:36;;;;;;;13.50;2.25;;;;;;;5.56;91.25;99763.31;5148220;27;20042;-69
2022/01/09 10:28:05;;;;;;;5.22;1.45;;;;;;;5.58;91.01;99759.63;5136643;27;20035;-68
2022/01/09 10:30:34;;;;;;;0.90;0.40;;;;;;;5.53;90.58;99773.13;5135987;27;20131;-70
2022/01/09 10:33:04;;;;;;;2.25;1.25;;;;;;;5.42;91.61;99776.53;5136951;27;20050;-69
2022/01/09 10:35:32;;;;;;;6.20;1.45;;;;;;;5.52;91.62;99766.25;5135245;27;20047;-70
2022/01/09 10:38:15;;;;;;;5.07;1.73;;;;;;;5.66;90.77;99769.50;5141842;27;20070;-68
2022/01/09 10:40:46;;;;;;;0.77;0.55;;;;;;;5.71;90.63;99767.38;5136106;27;20049;-72
2022/01/09 10:43:25;;;;;;;3.70;1.13;;;;;;;5.59;91.05;99783.94;5144802;27;20046;-68
2022/01/09 10:45:58;;;;;;;2.28;0.80;;;;;;;5.73;90.35;99771.53;5139747;27;20074;-68
2022/01/09 10:48:26;;;;;;;6.10;2.35;;;;;;;6.00;89.11;99779.09;5134372;27;20057;-68
2022/01/09 10:50:54;;;;;;;10.27;1.13;;;;;;;5.96;89.14;99793.28;5131196;27;20051;-70
2022/01/09 10:53:26;;;;;;;5.20;1.92;;;;;;;5.83;89.72;99771.72;5142301;27;20043;-69
2022/01/09 10:56:10;;;;;;;1.63;1.08;;;;;;;6.05;89.27;99788.22;5151378;27;20035;-71
2022/01/09 10:58:40;;;;;;;3.97;1.48;;;;;;;6.13;88.57;99798.91;5139725;27;20043;-71
2022/01/09 11:01:14;;;;;;;1.50;1.17;;;;;;;6.10;89.06;99800.91;5140538;27;20042;-71
2022/01/09 11:03:42;;;;;;;2.33;1.13;;;;;;;6.01;88.77;99799.00;5138876;27;20042;-71
2022/01/09 11:06:10;;;;;;;2.95;1.25;;;;;;;6.04;89.28;99796.16;5144115;27;20031;-70
2022/01/09 11:08:39;;;;;;;0.60;0.50;;;;;;;6.26;88.30;99801.41;5131660;27;20046;-73
2022/01/09 11:11:17;;;;;;;2.55;1.23;;;;;;;6.51;87.18;99802.00;5138446;27;20121;-72
2022/01/09 11:13:47;;;;;;;3.30;1.23;;;;;;;7.03;85.52;99805.63;5138309;27;20045;-72
2022/01/09 11:16:33;;;;;;;7.63;1.80;;;;;;;7.13;84.88;99809.19;5137695;27;20192;-74
2022/01/09 11:19:04;;;;;;;1.70;0.80;;;;;;;6.92;85.49;99810.03;5135738;27;20299;-72
2022/01/09 11:21:31;;;;;;;0.55;0.45;;;;;;;6.64;87.26;99811.38;5137594;27;20027;-68
2022/01/09 11:24:07;;;;;;;4.57;1.38;;;;;;;6.43;88.50;99817.41;5131970;27;20050;-70
2022/01/09 11:26:43;;;;;;;3.33;2.20;;;;;;;6.39;89.86;99816.81;5127314;27;20146;-72
2022/01/09 11:29:12;;;;;;;5.20;1.58;;;;;;;6.35;89.43;99818.97;5134137;27;20130;-74
2022/01/09 11:31:44;;;;;;;9.57;1.60;;;;;;;6.32;89.18;99829.63;5134919;27;20039;-74
2022/01/09 11:34:17;;;;;;;2.28;1.13;;;;;;;6.17;89.58;99823.78;5129718;27;20113;-71
2022/01/09 11:36:53;;;;;;;3.42;1.85;;;;;;;6.05;90.89;99829.94;5135411;27;20179;-72
2022/01/09 11:39:23;;;;;;;4.07;1.80;;;;;;;6.06;91.32;99828.16;5135731;27;20046;-73
2022/01/09 11:42:06;;;;;;;2.90;1.27;;;;;;;6.08;91.39;99826.28;5141835;27;20049;-73
2022/01/09 11:44:33;;;;;;;6.38;1.92;;;;;;;6.24;90.98;99838.00;5135171;27;20042;-73
2022/01/09 11:47:01;;;;;;;9.88;2.10;;;;;;;6.51;90.27;99844.59;5138881;27;20047;-72
2022/01/09 11:49:29;;;;;;;5.07;1.85;;;;;;;6.87;88.87;99846.94;5137296;27;20047;-74
2022/01/09 11:51:59;;;;;;;0.57;0.40;;;;;;;6.85;86.71;99838.44;5149912;27;20520;-74